createdAt,value
2022-08-25T00:00:45.709Z,99.50
2022-08-25T00:03:19.172Z,99.60
2022-08-25T00:05:50.042Z,99.60
2022-08-25T00:08:20.347Z,99.60
2022-08-25T00:10:57.756Z,99.40
2022-08-25T00:13:33.766Z,99.30
2022-08-25T00:16:04.289Z,99.40
2022-08-25T00:18:35.261Z,99.40
2022-08-25T00:21:06.095Z,99.20
2022-08-25T00:23:36.990Z,99.20
2022-08-25T00:26:08.053Z,99.20
2022-08-25T00:28:39.938Z,99.10
2022-08-25T00:31:14.036Z,99.20
2022-08-25T00:33:46.835Z,99.30
2022-08-25T00:36:18.960Z,99.30
2022-08-25T00:38:51.282Z,99.20
2022-08-25T00:41:25.522Z,99.50
2022-08-25T00:44:03.375Z,99.70
2022-08-25T00:46:39.445Z,99.60
2022-08-25T00:49:25.079Z,99.40
2022-08-25T00:52:05.486Z,99.40
2022-08-25T00:54:43.299Z,99.20
2022-08-25T00:57:16.929Z,99.20
2022-08-25T00:59:47.537Z,99.10
2022-08-25T01:02:21.301Z,98.90
2022-08-25T01:04:52.143Z,98.70
2022-08-25T01:07:27.001Z,98.70
2022-08-25T01:09:57.834Z,98.40
2022-08-25T01:12:28.462Z,97.90
2022-08-25T01:15:00.034Z,97.50
2022-08-25T01:17:38.271Z,97.60
2022-08-25T01:20:08.992Z,97.20
2022-08-25T01:22:40.129Z,97.30
2022-08-25T01:25:38.487Z,97.20
2022-08-25T01:28:09.654Z,97.20
2022-08-25T01:30:40.703Z,97.40
2022-08-25T01:33:13.816Z,97.30
2022-08-25T01:35:44.392Z,97.20
2022-08-25T01:38:15.652Z,96.90
2022-08-25T01:40:46.448Z,97.50
2022-08-25T01:43:29.226Z,97.00
2022-08-25T01:46:00.232Z,97.30
2022-08-25T01:48:31.297Z,97.30
2022-08-25T01:51:01.746Z,97.20
2022-08-25T01:53:34.258Z,97.40
2022-08-25T01:56:13.642Z,97.00
2022-08-25T01:58:48.398Z,97.00
2022-08-25T02:01:28.413Z,97.20
2022-08-25T02:03:59.648Z,97.10
2022-08-25T02:06:34.369Z,97.10
2022-08-25T02:09:11.319Z,96.80
2022-08-25T02:11:44.701Z,96.80
2022-08-25T02:14:16.774Z,97.00
2022-08-25T02:16:52.982Z,96.70
2022-08-25T02:19:26.465Z,96.70
2022-08-25T02:21:57.827Z,96.80
2022-08-25T02:24:28.410Z,96.70
2022-08-25T02:27:00.128Z,96.60
2022-08-25T02:29:30.707Z,96.20
2022-08-25T02:32:00.989Z,96.00
2022-08-25T02:34:31.330Z,96.00
2022-08-25T02:37:01.695Z,95.40
2022-08-25T02:39:32.012Z,95.10
2022-08-25T02:42:02.427Z,95.20
2022-08-25T02:44:33.823Z,94.60
2022-08-25T02:47:05.235Z,94.90
2022-08-25T02:49:35.616Z,94.50
2022-08-25T02:52:07.407Z,94.30
2022-08-25T02:54:38.918Z,94.90
2022-08-25T02:57:09.681Z,95.60
2022-08-25T02:59:41.137Z,95.40
2022-08-25T03:02:11.509Z,94.60
2022-08-25T03:04:41.850Z,95.10
2022-08-25T03:07:14.737Z,95.30
2022-08-25T03:09:46.319Z,94.70
2022-08-25T03:12:16.878Z,94.10
2022-08-25T03:14:47.572Z,94.50
2022-08-25T03:17:18.105Z,93.80
2022-08-25T03:19:48.626Z,94.00
2022-08-25T03:22:18.950Z,93.60
2022-08-25T03:24:49.469Z,93.30
2022-08-25T03:27:20.275Z,92.90
2022-08-25T03:29:51.622Z,93.20
2022-08-25T03:32:21.969Z,93.40
2022-08-25T03:34:53.614Z,92.70
2022-08-25T03:37:23.852Z,92.00
2022-08-25T03:39:54.241Z,92.30
2022-08-25T03:42:24.704Z,92.40
2022-08-25T03:44:55.211Z,92.90
2022-08-25T03:47:27.976Z,92.10
2022-08-25T03:49:58.596Z,92.40
2022-08-25T03:52:29.153Z,92.00
2022-08-25T03:54:59.721Z,92.30
2022-08-25T03:57:30.725Z,92.40
2022-08-25T04:00:01.214Z,92.00
2022-08-25T04:02:33.830Z,91.70
2022-08-25T04:05:04.296Z,92.20
2022-08-25T04:07:34.943Z,91.60
2022-08-25T04:10:05.465Z,91.40
2022-08-25T04:12:36.022Z,92.10
2022-08-25T04:15:09.709Z,91.70
2022-08-25T04:17:45.149Z,91.40
2022-08-25T04:20:16.592Z,90.30
2022-08-25T04:22:47.046Z,90.60
2022-08-25T04:25:17.874Z,91.00
2022-08-25T04:27:48.348Z,90.30
2022-08-25T04:30:18.964Z,90.30
2022-08-25T04:32:50.633Z,89.40
2022-08-25T04:35:21.090Z,90.00
2022-08-25T04:37:52.348Z,89.20
2022-08-25T04:40:28.913Z,90.30
2022-08-25T04:42:59.850Z,91.40
2022-08-25T04:45:30.282Z,90.80
2022-08-25T04:48:03.584Z,89.90
2022-08-25T04:50:34.085Z,90.70
2022-08-25T04:53:04.915Z,90.10
2022-08-25T04:55:35.192Z,90.10
2022-08-25T04:58:05.678Z,90.10
2022-08-25T05:00:45.646Z,90.10
2022-08-25T05:03:16.485Z,89.60
2022-08-25T05:05:47.091Z,89.40
2022-08-25T05:08:17.421Z,90.10
2022-08-25T05:10:48.044Z,90.00
2022-08-25T05:13:18.412Z,89.10
2022-08-25T05:15:57.214Z,89.20
2022-08-25T05:18:32.951Z,90.40
2022-08-25T05:21:10.283Z,89.30
2022-08-25T05:23:41.219Z,88.90
2022-08-25T05:26:19.729Z,88.40
2022-08-25T05:28:53.450Z,90.00
2022-08-25T05:31:25.427Z,89.50
2022-08-25T05:38:03.724Z,89.00
2022-08-25T05:40:34.679Z,89.10
2022-08-25T05:43:06.512Z,86.80
2022-08-25T05:45:37.717Z,87.50
2022-08-25T05:48:08.354Z,88.00
2022-08-25T05:50:38.606Z,89.80
2022-08-25T05:53:08.859Z,88.60
2022-08-25T05:55:39.215Z,88.80
2022-08-25T05:58:10.228Z,88.80
2022-08-25T06:00:44.943Z,88.00
2022-08-25T06:03:15.860Z,90.40
2022-08-25T06:05:46.331Z,89.40
2022-08-25T06:08:18.064Z,89.00
2022-08-25T06:10:48.329Z,87.10
2022-08-25T06:13:18.647Z,88.30
2022-08-25T06:16:04.361Z,87.30
2022-08-25T06:18:34.854Z,88.00
2022-08-25T06:21:14.859Z,89.00
2022-08-25T06:23:45.568Z,87.40
2022-08-25T06:26:21.119Z,87.00
2022-08-25T06:28:53.225Z,87.30
2022-08-25T06:31:24.615Z,89.50
2022-08-25T06:33:55.073Z,88.90
2022-08-25T06:36:25.296Z,88.70
2022-08-25T06:38:56.021Z,89.60
2022-08-25T06:41:36.481Z,90.00
2022-08-25T06:44:08.560Z,89.80
2022-08-25T06:46:38.946Z,89.10
2022-08-25T06:49:10.362Z,89.70
2022-08-25T06:51:40.670Z,90.40
2022-08-25T06:54:12.393Z,89.60
2022-08-25T06:56:44.252Z,90.60
2022-08-25T06:59:14.997Z,90.60
2022-08-25T07:01:45.968Z,90.80
2022-08-25T07:04:20.878Z,90.60
2022-08-25T07:06:51.173Z,90.30
2022-08-25T07:09:21.565Z,90.00
2022-08-25T07:11:51.804Z,90.90
2022-08-25T07:14:22.514Z,90.70
2022-08-25T07:16:52.853Z,90.40
2022-08-25T07:19:23.360Z,90.50
2022-08-25T07:21:59.290Z,89.90
2022-08-25T07:24:29.862Z,90.20
2022-08-25T07:27:01.349Z,90.20
2022-08-25T07:29:34.090Z,89.10
2022-08-25T07:32:05.928Z,89.20
2022-08-25T07:34:51.802Z,89.10
2022-08-25T07:37:48.931Z,90.30
2022-08-25T07:40:26.550Z,90.40
2022-08-25T07:43:00.296Z,90.60
2022-08-25T07:45:41.136Z,91.10
2022-08-25T07:48:22.710Z,90.00
2022-08-25T07:50:53.916Z,90.20
2022-08-25T07:53:24.882Z,89.20
2022-08-25T07:55:55.474Z,89.60
2022-08-25T07:58:26.165Z,87.70
2022-08-25T08:00:56.543Z,88.70
2022-08-25T08:03:45.279Z,88.20
2022-08-25T08:06:25.209Z,88.10
2022-08-25T08:08:57.813Z,88.80
2022-08-25T08:11:33.135Z,88.90
2022-08-25T08:14:04.662Z,86.50
2022-08-25T08:16:35.727Z,88.30
2022-08-25T08:19:07.011Z,89.20
2022-08-25T08:21:39.185Z,88.50
2022-08-25T08:24:24.777Z,88.20
2022-08-25T08:27:01.188Z,88.00
2022-08-25T08:29:31.772Z,89.70
2022-08-25T08:32:02.193Z,87.80
2022-08-25T08:34:34.388Z,87.60
2022-08-25T08:37:06.039Z,88.50
2022-08-25T08:39:41.060Z,88.10
2022-08-25T08:42:42.315Z,89.60
2022-08-25T08:45:35.449Z,86.90
2022-08-25T08:48:43.692Z,86.80
2022-08-25T08:51:38.031Z,85.90
2022-08-25T08:54:21.023Z,87.20
2022-08-25T08:57:06.333Z,86.40
2022-08-25T08:59:46.608Z,86.70
2022-08-25T09:02:38.782Z,86.10
2022-08-25T09:05:23.431Z,86.10
2022-08-25T09:08:02.366Z,86.30
2022-08-25T09:10:44.840Z,85.90
2022-08-25T09:13:43.803Z,86.20
2022-08-25T09:17:01.092Z,84.40
2022-08-25T09:20:01.886Z,84.30
2022-08-25T09:23:12.354Z,85.10
2022-08-25T09:26:02.324Z,85.40
2022-08-25T09:28:43.950Z,85.10
2022-08-25T09:31:35.865Z,84.10
2022-08-25T09:34:09.831Z,84.20
2022-08-25T09:36:42.931Z,84.90
2022-08-25T09:39:15.129Z,84.80
2022-08-25T09:41:54.297Z,84.60
2022-08-25T09:44:35.721Z,84.60
2022-08-25T09:47:20.817Z,85.30
2022-08-25T09:50:05.701Z,83.80
2022-08-25T09:52:41.303Z,85.70
2022-08-25T09:55:36.509Z,86.00
2022-08-25T09:58:20.326Z,85.50
2022-08-25T10:01:24.480Z,85.60
2022-08-25T10:04:01.880Z,85.30
2022-08-25T10:06:47.103Z,86.00
2022-08-25T10:09:36.368Z,84.50
2022-08-25T10:12:18.438Z,84.70
2022-08-25T10:14:51.455Z,84.50
2022-08-25T10:17:35.803Z,86.90
2022-08-25T10:20:33.021Z,88.10
2022-08-25T10:23:18.264Z,87.20
2022-08-25T10:25:59.151Z,86.30
2022-08-25T10:28:49.585Z,86.80
2022-08-25T10:31:34.706Z,86.90
2022-08-25T10:34:27.178Z,87.40
2022-08-25T10:37:22.285Z,88.80
2022-08-25T10:40:31.106Z,86.00
2022-08-25T10:43:29.286Z,84.30
2022-08-25T10:46:19.901Z,86.40
2022-08-25T10:49:03.446Z,86.80
2022-08-25T10:52:00.282Z,85.90
2022-08-25T10:54:52.420Z,86.80
2022-08-25T10:57:47.373Z,87.40
2022-08-25T11:00:31.447Z,88.00
2022-08-25T11:03:36.589Z,89.90
2022-08-25T11:06:12.195Z,90.20
2022-08-25T11:09:02.098Z,90.90
2022-08-25T11:11:59.472Z,91.00
2022-08-25T11:14:52.199Z,90.40
2022-08-25T11:17:27.888Z,90.30
2022-08-25T11:20:06.885Z,90.10
2022-08-25T11:23:01.164Z,90.40
2022-08-25T11:25:44.769Z,90.60
2022-08-25T11:28:38.693Z,91.10
2022-08-25T11:31:11.672Z,91.10
2022-08-25T11:33:42.147Z,91.00
2022-08-25T11:39:57.554Z,91.00
2022-08-25T11:42:57.743Z,91.40
2022-08-25T11:45:57.490Z,91.00
2022-08-25T11:48:44.701Z,90.80
2022-08-25T11:51:38.963Z,90.50
2022-08-25T11:54:36.977Z,90.40
2022-08-25T11:57:20.375Z,91.60
2022-08-25T12:00:12.812Z,90.80
2022-08-25T12:02:52.919Z,91.10
2022-08-25T12:05:55.584Z,90.20
2022-08-25T12:09:00.666Z,90.10
2022-08-25T12:11:46.535Z,90.50
2022-08-25T12:14:40.773Z,91.00
2022-08-25T12:17:23.309Z,91.70
2022-08-25T12:19:57.344Z,91.80
2022-08-25T12:22:57.141Z,92.00
2022-08-25T12:25:40.559Z,92.20
2022-08-25T12:28:44.832Z,92.30
2022-08-25T12:31:31.679Z,92.70
2022-08-25T12:34:38.886Z,93.00
2022-08-25T12:37:18.535Z,93.50
2022-08-25T12:40:09.383Z,93.50
2022-08-25T12:42:46.117Z,93.90
2022-08-25T12:45:40.469Z,93.60
2022-08-25T12:48:44.014Z,93.60
2022-08-25T12:51:22.577Z,93.50
2022-08-25T12:54:23.845Z,93.40
2022-08-25T12:57:00.694Z,93.50
2022-08-25T12:59:40.335Z,93.90
2022-08-25T13:02:52.124Z,94.10
2022-08-25T13:05:52.573Z,94.10
2022-08-25T13:09:14.616Z,94.20
2022-08-25T13:12:11.068Z,94.50
2022-08-25T13:14:49.737Z,94.30
2022-08-25T13:17:38.370Z,94.20
2022-08-25T13:20:29.555Z,94.30
2022-08-25T13:23:04.092Z,94.50
2022-08-25T13:25:37.094Z,94.60
2022-08-25T13:28:11.145Z,94.60
2022-08-25T13:30:41.822Z,94.60
2022-08-25T13:33:22.778Z,94.60
2022-08-25T13:36:09.236Z,94.80
2022-08-25T13:38:40.599Z,95.00
2022-08-25T13:41:13.534Z,94.90
2022-08-25T13:43:47.197Z,94.90
2022-08-25T13:46:23.049Z,94.90
2022-08-25T13:49:04.899Z,95.00
2022-08-25T13:51:35.507Z,95.10
2022-08-25T13:54:10.800Z,95.10
2022-08-25T13:56:44.427Z,95.10
2022-08-25T13:59:30.335Z,94.90
2022-08-25T14:02:01.999Z,94.90
2022-08-25T14:04:52.868Z,95.00
2022-08-25T14:07:33.742Z,95.10
2022-08-25T14:10:28.945Z,95.10
2022-08-25T14:13:31.484Z,95.00
2022-08-25T14:16:26.108Z,95.00
2022-08-25T14:19:01.097Z,95.20
2022-08-25T14:21:34.725Z,95.60
2022-08-25T14:24:05.222Z,95.50
2022-08-25T14:26:35.694Z,95.60
2022-08-25T14:29:08.123Z,95.50
2022-08-25T14:31:42.518Z,95.30
2022-08-25T14:34:28.666Z,95.40
2022-08-25T14:37:01.986Z,95.50
2022-08-25T14:39:32.440Z,95.50
2022-08-25T14:42:02.754Z,95.90
2022-08-25T14:44:33.096Z,95.70
2022-08-25T14:47:04.735Z,95.70
2022-08-25T14:49:43.399Z,95.70
2022-08-25T14:52:22.655Z,95.40
2022-08-25T14:54:53.411Z,95.50
2022-08-25T14:57:23.722Z,95.50
2022-08-25T14:59:54.854Z,95.40
2022-08-25T15:02:29.546Z,95.50
2022-08-25T15:05:09.911Z,95.40
2022-08-25T15:07:59.312Z,95.40
2022-08-25T15:10:30.299Z,95.60
2022-08-25T15:13:00.783Z,95.70
2022-08-25T15:15:32.819Z,95.70
2022-08-25T15:18:04.555Z,95.70
2022-08-25T15:20:38.456Z,95.70
2022-08-25T15:23:09.941Z,95.70
2022-08-25T15:25:40.954Z,95.90
2022-08-25T15:28:12.048Z,95.50
2022-08-25T15:30:48.676Z,95.40
2022-08-25T15:33:19.437Z,95.30
2022-08-25T15:35:52.171Z,95.30
2022-08-25T15:38:24.559Z,95.10
2022-08-25T15:40:56.910Z,95.00
2022-08-25T15:43:29.290Z,95.10
2022-08-25T15:46:05.093Z,95.20
2022-08-25T15:48:38.495Z,95.20
2022-08-25T15:51:11.506Z,95.20
2022-08-25T15:53:42.566Z,95.20
2022-08-25T15:56:16.460Z,95.30
2022-08-25T15:58:57.551Z,95.20
2022-08-25T16:01:35.040Z,95.30
2022-08-25T16:04:05.897Z,95.50
2022-08-25T16:06:37.982Z,95.50
2022-08-25T16:09:09.478Z,95.50
2022-08-25T16:11:41.263Z,95.50
2022-08-25T16:14:17.027Z,95.50
2022-08-25T16:16:48.025Z,95.60
2022-08-25T16:19:18.356Z,95.90
2022-08-25T16:21:48.698Z,95.90
2022-08-25T16:24:20.398Z,95.80
2022-08-25T16:26:52.281Z,95.60
2022-08-25T16:29:26.310Z,95.50
2022-08-25T16:32:02.328Z,95.50
2022-08-25T16:34:35.114Z,95.40
2022-08-25T16:37:07.516Z,95.50
2022-08-25T16:39:40.024Z,95.40
2022-08-25T16:42:11.746Z,95.40
2022-08-25T16:44:42.056Z,95.40
2022-08-25T16:47:14.128Z,95.20
2022-08-25T16:49:45.069Z,95.10
2022-08-25T16:52:30.781Z,95.10
2022-08-25T16:55:17.990Z,95.20
2022-08-25T16:57:58.218Z,95.10
2022-08-25T17:00:33.367Z,95.10
2022-08-25T17:03:07.057Z,94.80
2022-08-25T17:05:43.842Z,94.70
2022-08-25T17:08:32.653Z,94.70
2022-08-25T17:11:16.214Z,94.90
2022-08-25T17:13:51.603Z,94.90
2022-08-25T17:16:23.720Z,94.80
2022-08-25T17:18:55.927Z,94.80
2022-08-25T17:21:29.189Z,94.70
2022-08-25T17:24:00.115Z,94.80
2022-08-25T17:26:32.017Z,94.70
2022-08-25T17:29:04.140Z,94.70
2022-08-25T17:31:41.496Z,94.70
2022-08-25T17:34:16.558Z,94.60
2022-08-25T17:36:47.852Z,94.70
2022-08-25T17:39:22.157Z,94.80
2022-08-25T17:41:53.746Z,94.80
2022-08-25T17:44:24.206Z,94.90
2022-08-25T17:46:54.877Z,94.90
2022-08-25T17:49:27.750Z,94.90
2022-08-25T17:51:58.423Z,95.10
2022-08-25T17:54:29.075Z,95.00
2022-08-25T17:57:00.790Z,95.20
2022-08-25T17:59:32.754Z,95.20
2022-08-25T18:02:04.317Z,95.30
2022-08-25T18:04:35.593Z,95.30
2022-08-25T18:07:08.567Z,95.30
2022-08-25T18:09:39.126Z,95.20
2022-08-25T18:12:10.048Z,95.20
2022-08-25T18:14:42.537Z,95.20
2022-08-25T18:17:18.628Z,95.40
2022-08-25T18:19:53.916Z,95.00
2022-08-25T18:22:24.403Z,95.00
2022-08-25T18:24:55.120Z,95.10
2022-08-25T18:27:26.013Z,95.20
2022-08-25T18:29:57.146Z,95.20
2022-08-25T18:32:27.766Z,95.20
2022-08-25T18:35:00.016Z,95.20
2022-08-25T18:37:52.386Z,95.30
2022-08-25T18:40:26.049Z,95.30
2022-08-25T18:43:03.949Z,95.40
2022-08-25T18:45:41.181Z,95.40
2022-08-25T18:48:12.075Z,95.50
2022-08-25T18:50:44.549Z,95.50
2022-08-25T18:53:16.414Z,95.30
2022-08-25T18:55:47.569Z,95.20
2022-08-25T18:58:21.428Z,95.30
2022-08-25T19:00:54.589Z,95.30
2022-08-25T19:03:25.546Z,95.20
2022-08-25T19:05:58.445Z,95.10
2022-08-25T19:08:29.239Z,95.10
2022-08-25T19:10:59.889Z,95.20
2022-08-25T19:13:30.562Z,95.10
2022-08-25T19:16:01.893Z,95.10
2022-08-25T19:18:33.087Z,95.10
2022-08-25T19:21:04.975Z,95.00
2022-08-25T19:23:39.918Z,95.00
2022-08-25T19:26:16.989Z,94.90
2022-08-25T19:28:50.527Z,94.90
2022-08-25T19:31:25.018Z,95.00
2022-08-25T19:33:57.357Z,94.80
2022-08-25T19:36:30.169Z,94.80
2022-08-25T19:39:03.527Z,94.90
2022-08-25T19:41:35.093Z,95.00
2022-08-25T19:44:06.049Z,95.10
2022-08-25T19:46:39.808Z,95.00
2022-08-25T19:49:15.116Z,94.80
2022-08-25T19:51:51.414Z,94.80
2022-08-25T19:54:28.514Z,94.90
2022-08-25T19:57:00.626Z,95.10
2022-08-25T19:59:40.599Z,95.00
2022-08-25T20:02:21.099Z,95.10
2022-08-25T20:04:55.004Z,95.00
2022-08-25T20:07:30.066Z,95.10
2022-08-25T20:10:02.538Z,95.20
2022-08-25T20:12:33.730Z,95.30
2022-08-25T20:15:05.502Z,95.30
2022-08-25T20:17:36.263Z,95.30
2022-08-25T20:20:11.521Z,95.20
2022-08-25T20:22:42.533Z,95.30
2022-08-25T20:25:21.956Z,95.10
2022-08-25T20:27:56.202Z,95.20
2022-08-25T20:30:30.380Z,95.30
2022-08-25T20:33:01.824Z,95.20
2022-08-25T20:35:32.355Z,95.10
2022-08-25T20:38:03.134Z,95.10
2022-08-25T20:40:34.570Z,95.30
2022-08-25T20:43:11.925Z,95.10
2022-08-25T20:45:42.984Z,95.00
2022-08-25T20:48:14.416Z,95.10
2022-08-25T20:50:44.720Z,94.90
2022-08-25T20:53:15.546Z,95.10
2022-08-25T20:55:45.907Z,94.80
2022-08-25T20:58:17.453Z,94.70
2022-08-25T21:00:49.094Z,95.00
2022-08-25T21:03:19.943Z,95.00
2022-08-25T21:05:53.543Z,95.30
2022-08-25T21:08:25.441Z,94.70
2022-08-25T21:10:55.934Z,94.50
2022-08-25T21:13:26.339Z,94.60
2022-08-25T21:15:56.640Z,94.70
2022-08-25T21:18:31.401Z,94.80
2022-08-25T21:21:15.481Z,94.80
2022-08-25T21:23:50.885Z,94.90
2022-08-25T21:26:26.124Z,94.90
2022-08-25T21:28:59.102Z,94.80
2022-08-25T21:31:30.862Z,94.90
2022-08-25T21:34:02.340Z,94.60
2022-08-25T21:36:35.094Z,94.60
2022-08-25T21:39:06.649Z,94.90
2022-08-25T21:41:39.048Z,94.70
2022-08-25T21:44:10.105Z,94.90
2022-08-25T21:46:41.519Z,95.00
2022-08-25T21:49:25.302Z,95.30
2022-08-25T21:52:00.464Z,95.00
2022-08-25T21:54:32.219Z,95.00
2022-08-25T21:57:05.304Z,95.00
2022-08-25T21:59:38.358Z,95.00
2022-08-25T22:02:12.070Z,94.80
2022-08-25T22:04:42.819Z,94.70
2022-08-25T22:07:14.048Z,94.90
2022-08-25T22:09:44.479Z,94.90
2022-08-25T22:12:15.158Z,95.00
2022-08-25T22:14:46.114Z,95.20
2022-08-25T22:17:20.952Z,95.40
2022-08-25T22:19:53.616Z,95.30
2022-08-25T22:22:24.676Z,95.40
2022-08-25T22:24:56.017Z,95.10
2022-08-25T22:27:27.074Z,95.10
2022-08-25T22:29:57.692Z,95.00
2022-08-25T22:32:28.139Z,94.70
2022-08-25T22:34:58.595Z,94.50
2022-08-25T22:37:30.504Z,94.70
2022-08-25T22:40:00.937Z,94.90
2022-08-25T22:42:32.221Z,94.70
2022-08-25T22:45:03.208Z,94.80
2022-08-25T22:47:33.526Z,94.80
2022-08-25T22:50:04.164Z,94.90
2022-08-25T22:52:36.299Z,95.00
2022-08-25T22:55:08.422Z,95.10
2022-08-25T22:57:43.384Z,95.30
2022-08-25T23:00:17.085Z,95.40
2022-08-25T23:02:48.248Z,95.40
2022-08-25T23:05:18.938Z,95.50
2022-08-25T23:07:49.270Z,95.60
2022-08-25T23:10:20.158Z,95.70
2022-08-25T23:12:50.866Z,95.70
2022-08-25T23:15:21.325Z,95.60
2022-08-25T23:17:52.618Z,95.70
2022-08-25T23:20:33.209Z,95.70
2022-08-25T23:23:03.625Z,95.70
2022-08-25T23:25:34.253Z,95.60
2022-08-25T23:28:04.677Z,95.70
2022-08-25T23:30:35.026Z,95.70
2022-08-25T23:33:10.138Z,95.80
2022-08-25T23:35:40.661Z,95.90
2022-08-25T23:38:13.169Z,96.30
2022-08-25T23:40:46.952Z,96.20
2022-08-25T23:43:18.334Z,96.60
2022-08-25T23:45:48.839Z,97.00
2022-08-25T23:48:19.963Z,97.40
2022-08-25T23:50:54.099Z,97.50
2022-08-25T23:53:24.827Z,97.60
2022-08-25T23:55:55.614Z,98.00
2022-08-25T23:58:26.293Z,98.10
